sensor_id;sensor_type;location;lat;lon;timestamp;temperature;humidity
24860;DHT22;12936;52.006;4.350;2022-07-12T00:00:12;23.10;99.90
24860;DHT22;12936;52.006;4.350;2022-07-12T00:02:40;23.10;99.90
24860;DHT22;12936;52.006;4.350;2022-07-12T00:05:08;23.00;99.90
24860;DHT22;12936;52.006;4.350;2022-07-12T00:07:37;23.10;99.90
24860;DHT22;12936;52.006;4.350;2022-07-12T00:10:06;23.00;99.90
24860;DHT22;12936;52.006;4.350;2022-07-12T00:12:35;23.00;99.90
24860;DHT22;12936;52.006;4.350;2022-07-12T00:15:04;23.00;99.90
24860;DHT22;12936;52.006;4.350;2022-07-12T00:17:35;23.00;99.90
24860;DHT22;12936;52.006;4.350;2022-07-12T00:20:06;22.90;99.90
24860;DHT22;12936;52.006;4.350;2022-07-12T00:22:37;22.90;99.90
24860;DHT22;12936;52.006;4.350;2022-07-12T00:25:06;22.90;99.90
24860;DHT22;12936;52.006;4.350;2022-07-12T00:27:34;22.90;99.90
24860;DHT22;12936;52.006;4.350;2022-07-12T00:30:04;22.90;99.90
24860;DHT22;12936;52.006;4.350;2022-07-12T00:32:33;22.80;99.90
24860;DHT22;12936;52.006;4.350;2022-07-12T00:35:03;22.80;99.90
24860;DHT22;12936;52.006;4.350;2022-07-12T00:37:32;22.80;99.90
24860;DHT22;12936;52.006;4.350;2022-07-12T00:40:01;22.80;99.90
24860;DHT22;12936;52.006;4.350;2022-07-12T00:42:29;22.80;99.90
24860;DHT22;12936;52.006;4.350;2022-07-12T00:44:57;22.70;99.90
24860;DHT22;12936;52.006;4.350;2022-07-12T00:47:32;22.70;99.90
24860;DHT22;12936;52.006;4.350;2022-07-12T00:50:06;22.70;99.90
24860;DHT22;12936;52.006;4.350;2022-07-12T00:52:37;22.70;99.90
24860;DHT22;12936;52.006;4.350;2022-07-12T00:55:06;22.60;99.90
24860;DHT22;12936;52.006;4.350;2022-07-12T00:57:34;22.60;99.90
24860;DHT22;12936;52.006;4.350;2022-07-12T01:00:05;22.60;99.90
24860;DHT22;12936;52.006;4.350;2022-07-12T01:02:35;22.60;99.90
24860;DHT22;12936;52.006;4.350;2022-07-12T01:05:07;22.50;99.90
24860;DHT22;12936;52.006;4.350;2022-07-12T01:07:36;22.60;99.90
24860;DHT22;12936;52.006;4.350;2022-07-12T01:10:06;22.50;99.90
24860;DHT22;12936;52.006;4.350;2022-07-12T01:12:35;22.50;99.90
24860;DHT22;12936;52.006;4.350;2022-07-12T01:15:05;22.50;99.90
24860;DHT22;12936;52.006;4.350;2022-07-12T01:17:34;22.40;99.90
24860;DHT22;12936;52.006;4.350;2022-07-12T01:20:06;22.40;99.90
24860;DHT22;12936;52.006;4.350;2022-07-12T01:22:40;22.40;99.90
24860;DHT22;12936;52.006;4.350;2022-07-12T01:25:11;22.40;99.90
24860;DHT22;12936;52.006;4.350;2022-07-12T01:27:40;22.30;99.90
24860;DHT22;12936;52.006;4.350;2022-07-12T01:30:09;22.30;99.90
24860;DHT22;12936;52.006;4.350;2022-07-12T01:32:38;22.30;99.90
24860;DHT22;12936;52.006;4.350;2022-07-12T01:35:08;22.30;99.90
24860;DHT22;12936;52.006;4.350;2022-07-12T01:37:37;22.30;99.90
24860;DHT22;12936;52.006;4.350;2022-07-12T01:40:07;22.20;99.90
24860;DHT22;12936;52.006;4.350;2022-07-12T01:42:37;22.20;99.90
24860;DHT22;12936;52.006;4.350;2022-07-12T01:45:07;22.20;99.90
24860;DHT22;12936;52.006;4.350;2022-07-12T01:47:36;22.20;99.90
24860;DHT22;12936;52.006;4.350;2022-07-12T01:50:06;22.10;99.90
24860;DHT22;12936;52.006;4.350;2022-07-12T01:52:35;22.10;99.90
24860;DHT22;12936;52.006;4.350;2022-07-12T01:55:04;22.10;99.90
24860;DHT22;12936;52.006;4.350;2022-07-12T01:57:33;22.10;99.90
24860;DHT22;12936;52.006;4.350;2022-07-12T02:00:07;22.10;99.90
24860;DHT22;12936;52.006;4.350;2022-07-12T02:02:36;22.00;99.90
24860;DHT22;12936;52.006;4.350;2022-07-12T02:05:06;22.00;99.90
24860;DHT22;12936;52.006;4.350;2022-07-12T02:07:34;22.00;99.90
24860;DHT22;12936;52.006;4.350;2022-07-12T02:10:04;22.00;99.90
24860;DHT22;12936;52.006;4.350;2022-07-12T02:12:33;21.90;99.90
24860;DHT22;12936;52.006;4.350;2022-07-12T02:15:06;21.90;99.90
24860;DHT22;12936;52.006;4.350;2022-07-12T02:17:34;21.90;99.90
24860;DHT22;12936;52.006;4.350;2022-07-12T02:20:03;21.80;99.90
24860;DHT22;12936;52.006;4.350;2022-07-12T02:22:32;21.80;99.90
24860;DHT22;12936;52.006;4.350;2022-07-12T02:25:01;21.80;99.90
24860;DHT22;12936;52.006;4.350;2022-07-12T02:27:29;21.80;99.90
24860;DHT22;12936;52.006;4.350;2022-07-12T02:29:57;21.80;99.90
24860;DHT22;12936;52.006;4.350;2022-07-12T02:32:27;21.80;99.90
24860;DHT22;12936;52.006;4.350;2022-07-12T02:34:56;21.70;99.90
24860;DHT22;12936;52.006;4.350;2022-07-12T02:37:24;21.70;99.90
24860;DHT22;12936;52.006;4.350;2022-07-12T02:39:53;21.70;99.90
24860;DHT22;12936;52.006;4.350;2022-07-12T02:42:42;21.60;99.90
24860;DHT22;12936;52.006;4.350;2022-07-12T02:45:11;21.60;99.90
24860;DHT22;12936;52.006;4.350;2022-07-12T02:47:43;21.60;99.90
24860;DHT22;12936;52.006;4.350;2022-07-12T02:50:11;21.60;99.90
24860;DHT22;12936;52.006;4.350;2022-07-12T02:52:40;21.60;99.90
24860;DHT22;12936;52.006;4.350;2022-07-12T02:55:09;21.50;99.90
24860;DHT22;12936;52.006;4.350;2022-07-12T02:57:37;21.50;99.90
24860;DHT22;12936;52.006;4.350;2022-07-12T03:00:06;21.50;99.90
24860;DHT22;12936;52.006;4.350;2022-07-12T03:02:34;21.40;99.90
24860;DHT22;12936;52.006;4.350;2022-07-12T03:05:07;21.50;99.90
24860;DHT22;12936;52.006;4.350;2022-07-12T03:07:36;21.50;99.90
24860;DHT22;12936;52.006;4.350;2022-07-12T03:10:07;21.40;99.90
24860;DHT22;12936;52.006;4.350;2022-07-12T03:12:35;21.40;99.90
24860;DHT22;12936;52.006;4.350;2022-07-12T03:15:05;21.40;99.90
24860;DHT22;12936;52.006;4.350;2022-07-12T03:17:34;21.40;99.90
24860;DHT22;12936;52.006;4.350;2022-07-12T03:20:07;21.30;99.90
24860;DHT22;12936;52.006;4.350;2022-07-12T03:22:38;21.30;99.90
24860;DHT22;12936;52.006;4.350;2022-07-12T03:25:07;21.30;99.90
24860;DHT22;12936;52.006;4.350;2022-07-12T03:27:35;21.30;99.90
24860;DHT22;12936;52.006;4.350;2022-07-12T03:30:10;21.30;99.90
24860;DHT22;12936;52.006;4.350;2022-07-12T03:32:39;21.20;99.90
24860;DHT22;12936;52.006;4.350;2022-07-12T03:35:10;21.20;99.90
24860;DHT22;12936;52.006;4.350;2022-07-12T03:37:43;21.20;99.90
24860;DHT22;12936;52.006;4.350;2022-07-12T03:40:12;21.20;99.90
24860;DHT22;12936;52.006;4.350;2022-07-12T03:42:42;21.20;99.90
24860;DHT22;12936;52.006;4.350;2022-07-12T03:45:11;21.20;99.90
24860;DHT22;12936;52.006;4.350;2022-07-12T03:47:39;21.10;99.90
24860;DHT22;12936;52.006;4.350;2022-07-12T03:50:12;21.20;99.90
24860;DHT22;12936;52.006;4.350;2022-07-12T03:52:42;21.20;99.90
24860;DHT22;12936;52.006;4.350;2022-07-12T03:55:11;21.20;99.90
24860;DHT22;12936;52.006;4.350;2022-07-12T03:57:40;21.10;99.90
24860;DHT22;12936;52.006;4.350;2022-07-12T04:00:11;21.20;99.90
24860;DHT22;12936;52.006;4.350;2022-07-12T04:02:40;21.10;99.90
24860;DHT22;12936;52.006;4.350;2022-07-12T04:05:11;21.10;99.90
24860;DHT22;12936;52.006;4.350;2022-07-12T04:07:40;21.20;99.90
24860;DHT22;12936;52.006;4.350;2022-07-12T04:10:09;21.10;99.90
24860;DHT22;12936;52.006;4.350;2022-07-12T04:12:37;21.10;99.90
24860;DHT22;12936;52.006;4.350;2022-07-12T04:15:07;21.10;99.90
24860;DHT22;12936;52.006;4.350;2022-07-12T04:17:35;21.10;99.90
24860;DHT22;12936;52.006;4.350;2022-07-12T04:20:06;21.20;99.90
24860;DHT22;12936;52.006;4.350;2022-07-12T04:22:37;21.20;99.90
24860;DHT22;12936;52.006;4.350;2022-07-12T04:25:07;21.20;99.90
24860;DHT22;12936;52.006;4.350;2022-07-12T04:27:36;21.20;99.90
24860;DHT22;12936;52.006;4.350;2022-07-12T04:30:05;21.20;99.90
24860;DHT22;12936;52.006;4.350;2022-07-12T04:32:36;21.30;99.90
24860;DHT22;12936;52.006;4.350;2022-07-12T04:35:05;21.30;99.90
24860;DHT22;12936;52.006;4.350;2022-07-12T04:37:34;21.30;99.90
24860;DHT22;12936;52.006;4.350;2022-07-12T04:40:05;21.30;99.90
24860;DHT22;12936;52.006;4.350;2022-07-12T04:42:33;21.40;99.90
24860;DHT22;12936;52.006;4.350;2022-07-12T04:45:01;21.40;99.90
24860;DHT22;12936;52.006;4.350;2022-07-12T04:47:29;21.40;99.90
24860;DHT22;12936;52.006;4.350;2022-07-12T04:49:57;21.40;99.90
24860;DHT22;12936;52.006;4.350;2022-07-12T04:52:26;21.40;99.90
24860;DHT22;12936;52.006;4.350;2022-07-12T04:54:54;21.50;99.90
24860;DHT22;12936;52.006;4.350;2022-07-12T04:57:23;21.50;99.90
24860;DHT22;12936;52.006;4.350;2022-07-12T04:59:52;21.60;99.90
24860;DHT22;12936;52.006;4.350;2022-07-12T05:02:20;21.60;99.90
24860;DHT22;12936;52.006;4.350;2022-07-12T05:04:50;21.60;99.90
24860;DHT22;12936;52.006;4.350;2022-07-12T05:07:18;21.70;99.90
24860;DHT22;12936;52.006;4.350;2022-07-12T05:09:47;21.60;99.90
24860;DHT22;12936;52.006;4.350;2022-07-12T05:12:16;21.70;99.90
24860;DHT22;12936;52.006;4.350;2022-07-12T05:14:46;21.70;99.90
24860;DHT22;12936;52.006;4.350;2022-07-12T05:17:14;21.70;99.90
24860;DHT22;12936;52.006;4.350;2022-07-12T05:19:42;21.70;99.90
24860;DHT22;12936;52.006;4.350;2022-07-12T05:22:11;21.80;99.90
24860;DHT22;12936;52.006;4.350;2022-07-12T05:24:39;21.70;99.90
24860;DHT22;12936;52.006;4.350;2022-07-12T05:27:07;21.80;99.90
24860;DHT22;12936;52.006;4.350;2022-07-12T05:29:36;21.80;99.90
24860;DHT22;12936;52.006;4.350;2022-07-12T05:32:07;21.80;99.90
24860;DHT22;12936;52.006;4.350;2022-07-12T05:34:37;21.90;99.90
24860;DHT22;12936;52.006;4.350;2022-07-12T05:37:07;21.90;99.90
24860;DHT22;12936;52.006;4.350;2022-07-12T05:39:37;21.90;99.90
24860;DHT22;12936;52.006;4.350;2022-07-12T05:42:10;22.00;99.90
24860;DHT22;12936;52.006;4.350;2022-07-12T05:44:38;22.00;99.90
24860;DHT22;12936;52.006;4.350;2022-07-12T05:47:10;22.00;99.90
24860;DHT22;12936;52.006;4.350;2022-07-12T05:49:38;22.00;99.90
24860;DHT22;12936;52.006;4.350;2022-07-12T05:52:07;22.00;99.90
24860;DHT22;12936;52.006;4.350;2022-07-12T05:54:53;22.10;99.90
24860;DHT22;12936;52.006;4.350;2022-07-12T05:57:21;22.10;99.90
24860;DHT22;12936;52.006;4.350;2022-07-12T05:59:49;22.10;99.90
24860;DHT22;12936;52.006;4.350;2022-07-12T06:02:19;22.10;99.90
24860;DHT22;12936;52.006;4.350;2022-07-12T06:04:47;22.10;99.90
24860;DHT22;12936;52.006;4.350;2022-07-12T06:07:17;22.10;99.90
24860;DHT22;12936;52.006;4.350;2022-07-12T06:09:45;22.10;99.90
24860;DHT22;12936;52.006;4.350;2022-07-12T06:12:13;22.10;99.90
24860;DHT22;12936;52.006;4.350;2022-07-12T06:14:41;22.10;99.90
24860;DHT22;12936;52.006;4.350;2022-07-12T06:17:11;22.10;99.90
24860;DHT22;12936;52.006;4.350;2022-07-12T06:19:41;22.10;99.90
24860;DHT22;12936;52.006;4.350;2022-07-12T06:22:09;22.10;99.90
24860;DHT22;12936;52.006;4.350;2022-07-12T06:24:37;22.10;99.90
24860;DHT22;12936;52.006;4.350;2022-07-12T06:27:06;22.20;99.90
24860;DHT22;12936;52.006;4.350;2022-07-12T06:29:35;22.20;99.90
24860;DHT22;12936;52.006;4.350;2022-07-12T06:32:03;22.20;99.90
24860;DHT22;12936;52.006;4.350;2022-07-12T06:34:36;22.20;99.90
24860;DHT22;12936;52.006;4.350;2022-07-12T06:37:06;22.20;99.90
24860;DHT22;12936;52.006;4.350;2022-07-12T06:39:36;22.30;99.90
24860;DHT22;12936;52.006;4.350;2022-07-12T06:42:05;22.30;99.90
24860;DHT22;12936;52.006;4.350;2022-07-12T06:44:34;22.40;99.90
24860;DHT22;12936;52.006;4.350;2022-07-12T06:47:02;22.40;99.90
24860;DHT22;12936;52.006;4.350;2022-07-12T06:49:30;22.40;99.90
24860;DHT22;12936;52.006;4.350;2022-07-12T06:51:59;22.40;99.90
24860;DHT22;12936;52.006;4.350;2022-07-12T06:54:28;22.50;99.90
24860;DHT22;12936;52.006;4.350;2022-07-12T06:56:56;22.50;99.90
24860;DHT22;12936;52.006;4.350;2022-07-12T06:59:25;22.60;99.90
24860;DHT22;12936;52.006;4.350;2022-07-12T07:01:53;22.60;99.90
24860;DHT22;12936;52.006;4.350;2022-07-12T07:04:22;22.70;99.90
24860;DHT22;12936;52.006;4.350;2022-07-12T07:06:51;22.70;99.90
24860;DHT22;12936;52.006;4.350;2022-07-12T07:09:19;22.70;99.90
24860;DHT22;12936;52.006;4.350;2022-07-12T07:11:51;22.70;99.90
24860;DHT22;12936;52.006;4.350;2022-07-12T07:14:20;22.80;99.90
24860;DHT22;12936;52.006;4.350;2022-07-12T07:16:48;22.80;99.90
24860;DHT22;12936;52.006;4.350;2022-07-12T07:19:16;22.80;99.90
24860;DHT22;12936;52.006;4.350;2022-07-12T07:21:48;22.80;99.90
24860;DHT22;12936;52.006;4.350;2022-07-12T07:24:17;22.80;99.90
24860;DHT22;12936;52.006;4.350;2022-07-12T07:26:45;22.90;99.90
24860;DHT22;12936;52.006;4.350;2022-07-12T07:29:14;22.90;99.90
24860;DHT22;12936;52.006;4.350;2022-07-12T07:32:00;22.90;99.90
24860;DHT22;12936;52.006;4.350;2022-07-12T07:34:28;22.90;99.90
24860;DHT22;12936;52.006;4.350;2022-07-12T07:36:59;23.00;99.90
24860;DHT22;12936;52.006;4.350;2022-07-12T07:39:28;23.00;99.90
24860;DHT22;12936;52.006;4.350;2022-07-12T07:41:56;23.00;99.90
24860;DHT22;12936;52.006;4.350;2022-07-12T07:44:28;23.00;99.90
24860;DHT22;12936;52.006;4.350;2022-07-12T07:47:00;23.00;99.90
24860;DHT22;12936;52.006;4.350;2022-07-12T07:49:28;23.00;99.90
24860;DHT22;12936;52.006;4.350;2022-07-12T07:51:57;23.00;99.90
24860;DHT22;12936;52.006;4.350;2022-07-12T07:54:25;23.10;99.90
24860;DHT22;12936;52.006;4.350;2022-07-12T07:56:53;23.00;99.90
24860;DHT22;12936;52.006;4.350;2022-07-12T07:59:29;23.00;99.90
24860;DHT22;12936;52.006;4.350;2022-07-12T08:02:00;23.10;99.90
24860;DHT22;12936;52.006;4.350;2022-07-12T08:04:29;23.10;99.90
24860;DHT22;12936;52.006;4.350;2022-07-12T08:06:57;23.10;99.90
24860;DHT22;12936;52.006;4.350;2022-07-12T08:09:25;23.10;99.90
24860;DHT22;12936;52.006;4.350;2022-07-12T08:11:53;23.20;99.90
24860;DHT22;12936;52.006;4.350;2022-07-12T08:14:21;23.20;99.90
24860;DHT22;12936;52.006;4.350;2022-07-12T08:16:50;23.30;99.90
24860;DHT22;12936;52.006;4.350;2022-07-12T08:19:18;23.30;99.90
24860;DHT22;12936;52.006;4.350;2022-07-12T08:21:47;23.30;99.90
24860;DHT22;12936;52.006;4.350;2022-07-12T08:24:15;23.40;99.90
24860;DHT22;12936;52.006;4.350;2022-07-12T08:26:43;23.40;99.90
24860;DHT22;12936;52.006;4.350;2022-07-12T08:29:12;23.50;99.90
24860;DHT22;12936;52.006;4.350;2022-07-12T08:31:41;23.60;99.90
24860;DHT22;12936;52.006;4.350;2022-07-12T08:34:10;23.70;99.90
24860;DHT22;12936;52.006;4.350;2022-07-12T08:36:38;23.70;99.90
24860;DHT22;12936;52.006;4.350;2022-07-12T08:39:06;23.80;99.90
24860;DHT22;12936;52.006;4.350;2022-07-12T08:41:35;23.90;99.90
24860;DHT22;12936;52.006;4.350;2022-07-12T08:44:03;23.90;99.90
24860;DHT22;12936;52.006;4.350;2022-07-12T08:46:34;24.00;99.90
24860;DHT22;12936;52.006;4.350;2022-07-12T08:49:05;24.00;99.90
24860;DHT22;12936;52.006;4.350;2022-07-12T08:51:35;24.10;99.90
24860;DHT22;12936;52.006;4.350;2022-07-12T08:54:07;24.20;99.90
24860;DHT22;12936;52.006;4.350;2022-07-12T08:56:38;24.20;99.90
24860;DHT22;12936;52.006;4.350;2022-07-12T08:59:13;24.30;99.90
24860;DHT22;12936;52.006;4.350;2022-07-12T09:01:44;24.30;99.90
24860;DHT22;12936;52.006;4.350;2022-07-12T09:04:13;24.40;99.90
24860;DHT22;12936;52.006;4.350;2022-07-12T09:06:44;24.40;99.90
24860;DHT22;12936;52.006;4.350;2022-07-12T09:09:25;24.50;99.90
24860;DHT22;12936;52.006;4.350;2022-07-12T09:11:54;24.50;99.90
24860;DHT22;12936;52.006;4.350;2022-07-12T09:14:23;24.40;99.90
24860;DHT22;12936;52.006;4.350;2022-07-12T09:17:00;24.50;99.90
24860;DHT22;12936;52.006;4.350;2022-07-12T09:19:30;24.50;99.90
24860;DHT22;12936;52.006;4.350;2022-07-12T09:22:00;24.60;99.90
24860;DHT22;12936;52.006;4.350;2022-07-12T09:24:30;24.60;99.90
24860;DHT22;12936;52.006;4.350;2022-07-12T09:27:01;24.70;99.90
24860;DHT22;12936;52.006;4.350;2022-07-12T09:29:31;24.70;99.90
24860;DHT22;12936;52.006;4.350;2022-07-12T09:32:07;24.80;99.90
24860;DHT22;12936;52.006;4.350;2022-07-12T09:34:56;24.80;99.90
24860;DHT22;12936;52.006;4.350;2022-07-12T09:37:43;24.80;99.90
24860;DHT22;12936;52.006;4.350;2022-07-12T09:40:11;24.80;99.90
24860;DHT22;12936;52.006;4.350;2022-07-12T09:42:40;24.80;99.90
24860;DHT22;12936;52.006;4.350;2022-07-12T09:45:28;24.90;99.90
24860;DHT22;12936;52.006;4.350;2022-07-12T09:47:57;24.90;99.90
24860;DHT22;12936;52.006;4.350;2022-07-12T09:50:26;24.90;99.90
24860;DHT22;12936;52.006;4.350;2022-07-12T09:52:58;25.00;99.90
24860;DHT22;12936;52.006;4.350;2022-07-12T09:55:30;25.00;99.90
24860;DHT22;12936;52.006;4.350;2022-07-12T09:58:01;25.10;99.90
24860;DHT22;12936;52.006;4.350;2022-07-12T10:00:50;25.10;99.90
24860;DHT22;12936;52.006;4.350;2022-07-12T10:03:23;25.10;99.90
24860;DHT22;12936;52.006;4.350;2022-07-12T10:05:52;25.10;99.90
24860;DHT22;12936;52.006;4.350;2022-07-12T10:08:22;25.10;99.90
24860;DHT22;12936;52.006;4.350;2022-07-12T10:10:51;25.20;99.90
24860;DHT22;12936;52.006;4.350;2022-07-12T10:13:20;25.30;99.90
24860;DHT22;12936;52.006;4.350;2022-07-12T10:15:50;25.30;99.90
24860;DHT22;12936;52.006;4.350;2022-07-12T10:18:20;25.40;99.90
24860;DHT22;12936;52.006;4.350;2022-07-12T10:20:50;25.40;99.90
24860;DHT22;12936;52.006;4.350;2022-07-12T10:23:30;25.40;99.90
24860;DHT22;12936;52.006;4.350;2022-07-12T10:26:23;25.40;99.90
24860;DHT22;12936;52.006;4.350;2022-07-12T10:29:01;25.50;99.90
24860;DHT22;12936;52.006;4.350;2022-07-12T10:31:33;25.50;99.90
24860;DHT22;12936;52.006;4.350;2022-07-12T10:34:10;25.60;99.90
24860;DHT22;12936;52.006;4.350;2022-07-12T10:37:09;25.60;99.90
24860;DHT22;12936;52.006;4.350;2022-07-12T10:40:11;25.60;99.90
24860;DHT22;12936;52.006;4.350;2022-07-12T10:42:39;25.70;99.90
24860;DHT22;12936;52.006;4.350;2022-07-12T10:45:30;25.80;99.90
24860;DHT22;12936;52.006;4.350;2022-07-12T10:48:00;25.80;99.90
24860;DHT22;12936;52.006;4.350;2022-07-12T10:50:50;25.90;99.90
24860;DHT22;12936;52.006;4.350;2022-07-12T10:53:32;26.00;99.90
24860;DHT22;12936;52.006;4.350;2022-07-12T10:56:10;26.00;99.90
24860;DHT22;12936;52.006;4.350;2022-07-12T10:58:40;26.10;99.90
24860;DHT22;12936;52.006;4.350;2022-07-12T11:01:10;26.10;99.90
24860;DHT22;12936;52.006;4.350;2022-07-12T11:03:41;26.20;99.90
24860;DHT22;12936;52.006;4.350;2022-07-12T11:06:13;26.20;99.90
24860;DHT22;12936;52.006;4.350;2022-07-12T11:08:49;26.20;99.90
24860;DHT22;12936;52.006;4.350;2022-07-12T11:11:20;26.20;99.90
24860;DHT22;12936;52.006;4.350;2022-07-12T11:13:49;26.30;99.90
24860;DHT22;12936;52.006;4.350;2022-07-12T11:16:18;26.30;99.90
24860;DHT22;12936;52.006;4.350;2022-07-12T11:18:46;26.40;99.90
24860;DHT22;12936;52.006;4.350;2022-07-12T11:21:17;26.40;99.90
24860;DHT22;12936;52.006;4.350;2022-07-12T11:23:46;26.50;99.90
24860;DHT22;12936;52.006;4.350;2022-07-12T11:26:16;26.50;99.90
24860;DHT22;12936;52.006;4.350;2022-07-12T11:28:45;26.60;99.90
24860;DHT22;12936;52.006;4.350;2022-07-12T11:31:15;26.70;99.90
24860;DHT22;12936;52.006;4.350;2022-07-12T11:33:47;26.70;99.90
24860;DHT22;12936;52.006;4.350;2022-07-12T11:36:15;26.80;99.90
24860;DHT22;12936;52.006;4.350;2022-07-12T11:38:45;26.90;99.90
24860;DHT22;12936;52.006;4.350;2022-07-12T11:41:15;26.90;99.90
24860;DHT22;12936;52.006;4.350;2022-07-12T11:43:45;27.00;99.90
24860;DHT22;12936;52.006;4.350;2022-07-12T11:46:15;27.00;99.90
24860;DHT22;12936;52.006;4.350;2022-07-12T11:48:43;27.00;99.90
24860;DHT22;12936;52.006;4.350;2022-07-12T11:51:12;27.10;99.90
24860;DHT22;12936;52.006;4.350;2022-07-12T11:53:41;27.20;99.90
24860;DHT22;12936;52.006;4.350;2022-07-12T11:56:10;27.20;99.90
24860;DHT22;12936;52.006;4.350;2022-07-12T11:58:39;27.20;99.90
24860;DHT22;12936;52.006;4.350;2022-07-12T12:01:13;27.30;99.90
24860;DHT22;12936;52.006;4.350;2022-07-12T12:03:45;27.30;99.90
24860;DHT22;12936;52.006;4.350;2022-07-12T12:06:15;27.30;99.90
24860;DHT22;12936;52.006;4.350;2022-07-12T12:08:43;27.40;99.90
24860;DHT22;12936;52.006;4.350;2022-07-12T12:11:12;27.40;99.90
24860;DHT22;12936;52.006;4.350;2022-07-12T12:14:01;27.40;99.90
24860;DHT22;12936;52.006;4.350;2022-07-12T12:16:34;27.50;99.90
24860;DHT22;12936;52.006;4.350;2022-07-12T12:19:02;27.50;99.90
24860;DHT22;12936;52.006;4.350;2022-07-12T12:21:36;27.60;99.90
24860;DHT22;12936;52.006;4.350;2022-07-12T12:24:10;27.60;99.90
24860;DHT22;12936;52.006;4.350;2022-07-12T12:26:38;27.70;99.90
24860;DHT22;12936;52.006;4.350;2022-07-12T12:29:06;27.70;99.90
24860;DHT22;12936;52.006;4.350;2022-07-12T12:31:37;27.80;99.90
24860;DHT22;12936;52.006;4.350;2022-07-12T12:34:10;28.00;99.90
24860;DHT22;12936;52.006;4.350;2022-07-12T12:36:39;28.00;99.90
24860;DHT22;12936;52.006;4.350;2022-07-12T12:39:08;28.10;99.90
24860;DHT22;12936;52.006;4.350;2022-07-12T12:41:41;28.10;99.90
24860;DHT22;12936;52.006;4.350;2022-07-12T12:44:11;28.10;99.90
24860;DHT22;12936;52.006;4.350;2022-07-12T12:46:50;28.20;99.90
24860;DHT22;12936;52.006;4.350;2022-07-12T12:49:23;28.20;99.90
24860;DHT22;12936;52.006;4.350;2022-07-12T12:52:11;28.20;99.90
24860;DHT22;12936;52.006;4.350;2022-07-12T12:54:39;28.20;99.90
24860;DHT22;12936;52.006;4.350;2022-07-12T12:57:10;28.20;99.90
24860;DHT22;12936;52.006;4.350;2022-07-12T12:59:38;28.20;99.90
24860;DHT22;12936;52.006;4.350;2022-07-12T13:02:08;28.20;99.90
24860;DHT22;12936;52.006;4.350;2022-07-12T13:04:37;28.20;99.90
24860;DHT22;12936;52.006;4.350;2022-07-12T13:07:06;28.20;99.90
24860;DHT22;12936;52.006;4.350;2022-07-12T13:09:39;28.20;99.90
24860;DHT22;12936;52.006;4.350;2022-07-12T13:12:09;28.20;99.90
24860;DHT22;12936;52.006;4.350;2022-07-12T13:14:40;28.20;99.90
24860;DHT22;12936;52.006;4.350;2022-07-12T13:17:11;28.20;99.90
24860;DHT22;12936;52.006;4.350;2022-07-12T13:19:39;28.20;99.90
24860;DHT22;12936;52.006;4.350;2022-07-12T13:22:09;28.30;99.90
24860;DHT22;12936;52.006;4.350;2022-07-12T13:24:37;28.30;99.90
24860;DHT22;12936;52.006;4.350;2022-07-12T13:27:05;28.30;99.90
24860;DHT22;12936;52.006;4.350;2022-07-12T13:29:33;28.30;99.90
24860;DHT22;12936;52.006;4.350;2022-07-12T13:32:23;28.40;99.90
24860;DHT22;12936;52.006;4.350;2022-07-12T13:34:52;28.40;99.90
24860;DHT22;12936;52.006;4.350;2022-07-12T13:37:21;28.40;99.90
24860;DHT22;12936;52.006;4.350;2022-07-12T13:39:50;28.40;99.90
24860;DHT22;12936;52.006;4.350;2022-07-12T13:42:35;28.40;99.90
24860;DHT22;12936;52.006;4.350;2022-07-12T13:45:03;28.50;99.90
24860;DHT22;12936;52.006;4.350;2022-07-12T13:47:36;28.50;99.90
24860;DHT22;12936;52.006;4.350;2022-07-12T13:50:06;28.50;99.90
24860;DHT22;12936;52.006;4.350;2022-07-12T13:52:36;28.50;99.90
24860;DHT22;12936;52.006;4.350;2022-07-12T13:55:06;28.50;99.90
24860;DHT22;12936;52.006;4.350;2022-07-12T13:57:37;28.50;99.90
24860;DHT22;12936;52.006;4.350;2022-07-12T14:00:08;28.50;99.90
24860;DHT22;12936;52.006;4.350;2022-07-12T14:02:40;28.50;99.90
24860;DHT22;12936;52.006;4.350;2022-07-12T14:05:10;28.50;99.90
24860;DHT22;12936;52.006;4.350;2022-07-12T14:07:39;28.50;99.90
24860;DHT22;12936;52.006;4.350;2022-07-12T14:10:08;28.50;99.90
24860;DHT22;12936;52.006;4.350;2022-07-12T14:12:37;28.50;99.90
24860;DHT22;12936;52.006;4.350;2022-07-12T14:15:06;28.50;99.90
24860;DHT22;12936;52.006;4.350;2022-07-12T14:17:44;28.50;99.90
24860;DHT22;12936;52.006;4.350;2022-07-12T14:20:14;28.40;99.90
24860;DHT22;12936;52.006;4.350;2022-07-12T14:22:44;28.40;99.90
24860;DHT22;12936;52.006;4.350;2022-07-12T14:25:12;28.40;99.90
24860;DHT22;12936;52.006;4.350;2022-07-12T14:27:41;28.40;99.90
24860;DHT22;12936;52.006;4.350;2022-07-12T14:30:11;28.30;99.90
24860;DHT22;12936;52.006;4.350;2022-07-12T14:32:41;28.30;99.90
24860;DHT22;12936;52.006;4.350;2022-07-12T14:35:20;28.30;99.90
24860;DHT22;12936;52.006;4.350;2022-07-12T14:37:48;28.30;99.90
24860;DHT22;12936;52.006;4.350;2022-07-12T14:40:18;28.20;99.90
24860;DHT22;12936;52.006;4.350;2022-07-12T14:42:47;28.20;99.90
24860;DHT22;12936;52.006;4.350;2022-07-12T14:45:16;28.30;99.90
24860;DHT22;12936;52.006;4.350;2022-07-12T14:47:44;28.30;99.90
24860;DHT22;12936;52.006;4.350;2022-07-12T14:50:12;28.30;99.90
24860;DHT22;12936;52.006;4.350;2022-07-12T14:52:42;28.40;99.90
24860;DHT22;12936;52.006;4.350;2022-07-12T14:55:11;28.50;99.90
24860;DHT22;12936;52.006;4.350;2022-07-12T14:57:39;28.60;99.90
24860;DHT22;12936;52.006;4.350;2022-07-12T15:00:09;28.60;99.90
24860;DHT22;12936;52.006;4.350;2022-07-12T15:02:38;28.60;99.90
24860;DHT22;12936;52.006;4.350;2022-07-12T15:05:09;28.50;99.90
24860;DHT22;12936;52.006;4.350;2022-07-12T15:07:37;28.60;99.90
24860;DHT22;12936;52.006;4.350;2022-07-12T15:10:07;28.60;99.90
24860;DHT22;12936;52.006;4.350;2022-07-12T15:12:38;28.70;99.90
24860;DHT22;12936;52.006;4.350;2022-07-12T15:15:09;28.60;99.90
24860;DHT22;12936;52.006;4.350;2022-07-12T15:17:58;28.60;99.90
24860;DHT22;12936;52.006;4.350;2022-07-12T15:20:27;28.50;99.90
24860;DHT22;12936;52.006;4.350;2022-07-12T15:23:00;28.40;99.90
24860;DHT22;12936;52.006;4.350;2022-07-12T15:25:32;28.30;99.90
24860;DHT22;12936;52.006;4.350;2022-07-12T15:28:02;28.30;99.90
24860;DHT22;12936;52.006;4.350;2022-07-12T15:30:32;28.30;99.90
24860;DHT22;12936;52.006;4.350;2022-07-12T15:33:01;28.30;99.90
24860;DHT22;12936;52.006;4.350;2022-07-12T15:35:29;28.40;99.90
24860;DHT22;12936;52.006;4.350;2022-07-12T15:37:57;28.30;99.90
24860;DHT22;12936;52.006;4.350;2022-07-12T15:40:25;28.10;99.90
24860;DHT22;12936;52.006;4.350;2022-07-12T15:42:55;28.10;99.90
24860;DHT22;12936;52.006;4.350;2022-07-12T15:45:23;28.10;99.90
24860;DHT22;12936;52.006;4.350;2022-07-12T15:47:52;28.00;99.90
24860;DHT22;12936;52.006;4.350;2022-07-12T15:50:20;28.10;99.90